メインページ
METAR-TAF:

METAR-TAF

空港 :

釧路空港

釧路, 日本

緯度: 43-02N, 経度: 144-12E, 海抜: 95m

現時点の気象観測

当レポートは21分前の07:00(UTC)に作成
南/南西の風 8kt
気温 23°C
湿度 69%
気圧 1010 hPa
視程10km以上
高度3000ftの雲はほとんどない
千切れ雲あり

METAR: RJCK 200700Z 20008KT 9999 FEW030 BKN/// 23/17 Q1010

時間: 16:21 (07:21 UTC)

予報

当レポートは2時間11分前の05:10(UTC)に作成
予報は20日の 06時(UTC)から 21日の 12時(UTC)まで有効
南/南西の風 11kt
視程10km以上
高度3000ftの雲はほとんどない
20日の 11時(UTC)から 20日の 13時(UTC)まで徐々に
北東の風 4kt
20日の 12時(UTC)から 20日の 21時(UTC)まで一時的に
視程: 1500m
高度100ftの雲はほとんどない
高度300ftの千切れ雲あり
20日の 21時(UTC)から 21日の 00時(UTC)まで徐々に
南/南東の風 5kt
21日の 06時(UTC)から 21日の 09時(UTC)まで一時的に
視程: 1500m
高度100ftの雲はほとんどない
高度300ftの千切れ雲あり
弱いにわか雨, 靄
21日の 09時(UTC)から 21日の 12時(UTC)まで一時的に
視程: 0700m
高度100ftの
弱いにわか雨, 霧

TAF: RJCK 200510Z 2006/2112 20011KT 9999 FEW030 BECMG 2011/2013 05004KT TEMPO 2012/2021 1500 BR FEW001 BKN003 BECMG 2021/2100 16005KT TEMPO 2106/2109 1500 -SHRA BR FEW001 BKN003 TEMPO 2109/2112 0700 -SHRA FG VV001

4,000以上の空港の気象観測と天気予報(METAR報とTAF報)

利用可能な観測所は地図上に黄色い丸と赤い丸で示す。

丸の上にカーソルを重ねると観測所名を参照できる。

次にクリックすると気象観測と天気予報を参照できる。

マップの切り替え:黒色「×」印の緑ボタンをクリックして拡大、「-」印の緑ボタンをクリックして縮小、緑色の三角印をクリックして隣りの地図に切り替え


METAR-TAF: